Time;durP1;ratioP1;P1;durP2;ratioP2;P2;SDS_P1;SDS_P2;PMS_P1;PMS_P2;Temp;Humidity;BMP_temperature;BMP_pressure;BME280_temperature;BME280_humidity;BME280_pressure;Samples;Min_cycle;Max_cycle;Signal;HPM_P1;HPM_P2
2023/03/26 00:01:06;;;;;;;42.53;13.70;;;;;;;8.44;96.02;100604.44;5137501;27;20045;-56
2023/03/26 00:03:33;;;;;;;43.17;13.52;;;;;;;8.38;95.73;100605.69;5147185;27;20026;-56
2023/03/26 00:06:08;;;;;;;48.38;12.90;;;;;;;8.46;96.27;100604.38;5155805;27;20030;-56
2023/03/26 00:08:35;;;;;;;40.35;12.35;;;;;;;8.36;95.99;100614.63;5138024;27;20031;-57
2023/03/26 00:11:05;;;;;;;38.47;13.18;;;;;;;8.30;95.43;100607.03;5156385;27;20734;-56
2023/03/26 00:13:32;;;;;;;36.78;10.65;;;;;;;8.28;95.70;100593.84;5143274;27;20027;-56
2023/03/26 00:15:59;;;;;;;51.17;14.52;;;;;;;8.27;95.30;100601.91;5134849;27;20094;-57
2023/03/26 00:18:29;;;;;;;41.78;12.13;;;;;;;8.30;96.19;100605.22;5117223;27;20470;-56
2023/03/26 00:20:56;;;;;;;40.58;12.95;;;;;;;8.35;95.57;100599.63;5135093;27;20161;-56
2023/03/26 00:23:22;;;;;;;46.65;13.00;;;;;;;8.30;95.30;100596.44;5118354;27;20465;-57
2023/03/26 00:25:49;;;;;;;35.97;11.85;;;;;;;8.23;95.38;100601.19;5116677;27;20030;-56
2023/03/26 00:28:16;;;;;;;37.03;11.60;;;;;;;8.24;95.65;100597.63;5151163;27;20481;-57
2023/03/26 00:30:41;;;;;;;39.00;11.68;;;;;;;8.23;95.76;100587.09;5153348;27;20121;-56
2023/03/26 00:33:10;;;;;;;42.83;12.10;;;;;;;8.21;95.11;100584.56;5137426;27;20109;-56
2023/03/26 00:35:38;;;;;;;35.83;12.90;;;;;;;8.15;95.38;100592.88;5155780;27;20105;-57
2023/03/26 00:38:03;;;;;;;39.55;12.48;;;;;;;8.14;95.48;100591.13;5155952;27;20019;-57
2023/03/26 00:40:30;;;;;;;39.92;13.65;;;;;;;8.03;95.44;100569.69;5150047;27;20030;-57
2023/03/26 00:42:56;;;;;;;37.50;13.35;;;;;;;8.03;95.92;100590.88;5116566;27;20023;-56
2023/03/26 00:45:22;;;;;;;43.15;13.18;;;;;;;8.06;95.73;100588.94;5134511;27;20422;-56
2023/03/26 00:47:47;;;;;;;41.67;13.48;;;;;;;8.03;96.16;100581.16;5135038;27;20023;-57
2023/03/26 00:50:15;;;;;;;35.95;11.45;;;;;;;7.99;95.72;100565.53;5116193;27;20019;-56
2023/03/26 00:52:42;;;;;;;39.25;12.60;;;;;;;8.04;95.74;100577.56;5116767;27;20080;-56
2023/03/26 00:55:08;;;;;;;35.60;11.98;;;;;;;8.05;95.88;100571.31;5116743;27;20481;-56
2023/03/26 00:57:36;;;;;;;37.47;13.20;;;;;;;7.87;95.53;100562.63;5116444;27;20030;-57
2023/03/26 01:00:15;;;;;;;45.13;13.50;;;;;;;8.01;95.66;100568.97;5119331;27;20034;-56
2023/03/26 01:02:42;;;;;;;45.03;13.73;;;;;;;8.02;95.70;100557.41;5141860;27;20030;-57
2023/03/26 01:05:35;;;;;;;49.55;14.00;;;;;;;8.00;96.04;100564.56;5116076;27;20068;-57
2023/03/26 01:08:13;;;;;;;37.05;13.07;;;;;;;7.95;95.87;100554.25;5134412;27;20764;-57
2023/03/26 01:10:49;;;;;;;42.58;13.18;;;;;;;7.93;95.36;100543.75;5116633;27;20015;-56
2023/03/26 01:13:20;;;;;;;35.38;12.55;;;;;;;7.90;95.58;100543.91;5134351;27;20501;-57
2023/03/26 01:15:49;;;;;;;38.53;12.85;;;;;;;7.88;95.54;100518.47;5133775;27;20022;-56
2023/03/26 01:18:17;;;;;;;36.03;13.23;;;;;;;7.83;95.88;100523.19;5134294;27;20134;-56
2023/03/26 01:20:48;;;;;;;47.78;12.30;;;;;;;7.82;95.79;100527.59;5145476;27;20064;-56
2023/03/26 01:23:20;;;;;;;42.22;12.38;;;;;;;7.83;95.79;100528.50;5154966;27;20415;-56
2023/03/26 01:25:56;;;;;;;29.13;12.23;;;;;;;7.77;95.69;100520.91;5138104;27;20424;-57
2023/03/26 01:28:25;;;;;;;47.10;12.55;;;;;;;7.78;95.73;100519.94;5115644;27;20027;-57
2023/03/26 01:31:11;;;;;;;36.15;11.48;;;;;;;7.72;96.54;100513.19;5120345;27;20508;-56
2023/03/26 01:33:55;;;;;;;40.83;12.20;;;;;;;7.69;95.93;100505.44;5152775;27;20065;-57
2023/03/26 01:36:31;;;;;;;41.85;13.43;;;;;;;7.69;95.80;100501.00;5154664;27;20025;-57
2023/03/26 01:39:25;;;;;;;43.42;11.63;;;;;;;7.75;96.46;100505.09;5154746;27;20015;-56
2023/03/26 01:41:57;;;;;;;34.88;11.35;;;;;;;7.70;96.27;100504.50;5113522;28;20055;-56
2023/03/26 01:44:25;;;;;;;40.42;12.88;;;;;;;7.62;96.28;100510.22;5145966;27;20030;-57
2023/03/26 01:46:54;;;;;;;37.25;11.77;;;;;;;7.61;95.86;100502.38;5135685;27;20080;-57
2023/03/26 01:49:22;;;;;;;35.25;12.30;;;;;;;7.68;95.94;100499.28;5154173;27;20046;-56
2023/03/26 01:51:50;;;;;;;41.50;12.18;;;;;;;7.61;95.98;100497.06;5135679;27;20023;-57
2023/03/26 01:54:18;;;;;;;38.22;11.75;;;;;;;7.69;96.15;100497.50;5142745;27;20027;-56
2023/03/26 01:56:47;;;;;;;35.28;10.95;;;;;;;7.64;95.84;100497.75;5116257;27;20027;-57
2023/03/26 01:59:29;;;;;;;33.28;11.48;;;;;;;7.62;96.39;100485.56;5149369;27;20485;-57
2023/03/26 02:02:20;;;;;;;36.03;12.23;;;;;;;7.69;95.90;100477.16;5094657;28;20513;-57
2023/03/26 02:04:56;;;;;;;32.53;11.57;;;;;;;7.62;96.16;100470.53;5099162;27;20506;-57
2023/03/26 02:07:33;;;;;;;38.88;12.80;;;;;;;7.54;96.50;100459.53;5150728;27;20622;-56
2023/03/26 02:10:05;;;;;;;35.33;11.27;;;;;;;7.55;95.68;100455.06;5153959;27;20058;-57
2023/03/26 02:12:34;;;;;;;34.42;11.27;;;;;;;7.59;95.96;100460.13;5154176;27;20022;-56
2023/03/26 02:15:01;;;;;;;41.35;12.25;;;;;;;7.60;96.53;100456.53;5153329;27;20050;-57
2023/03/26 02:17:28;;;;;;;34.83;12.23;;;;;;;7.59;96.82;100453.94;5120575;27;20434;-56
2023/03/26 02:19:55;;;;;;;27.38;10.52;;;;;;;7.64;96.16;100449.25;5114406;27;20075;-57
2023/03/26 02:22:21;;;;;;;33.90;12.07;;;;;;;7.59;96.03;100446.00;5114794;27;20525;-57
2023/03/26 02:24:47;;;;;;;36.72;10.23;;;;;;;7.46;96.24;100444.06;5114601;27;20019;-56
2023/03/26 02:27:13;;;;;;;34.65;10.82;;;;;;;7.58;96.33;100444.31;5115637;27;20114;-58
2023/03/26 02:29:39;;;;;;;32.55;10.65;;;;;;;7.62;96.24;100444.06;5134992;27;20169;-56
2023/03/26 02:32:12;;;;;;;35.53;10.75;;;;;;;7.63;95.96;100440.47;5134936;27;20047;-57
2023/03/26 02:34:41;;;;;;;32.30;11.00;;;;;;;7.60;96.68;100445.09;5135767;27;20026;-57
2023/03/26 02:37:08;;;;;;;38.97;11.43;;;;;;;7.58;96.68;100433.72;5147863;27;20026;-57
2023/03/26 02:39:35;;;;;;;37.80;11.98;;;;;;;7.65;95.83;100433.31;5135105;27;20021;-56
2023/03/26 02:42:01;;;;;;;33.08;11.25;;;;;;;7.72;95.98;100428.50;5147403;27;20832;-57
2023/03/26 02:44:26;;;;;;;36.97;12.05;;;;;;;7.68;95.58;100422.53;5114342;28;20110;-57
2023/03/26 02:46:52;;;;;;;35.63;12.00;;;;;;;7.65;95.55;100428.00;5132404;27;20106;-56
2023/03/26 02:49:17;;;;;;;39.67;10.93;;;;;;;7.65;95.37;100422.72;5114282;27;20110;-57
2023/03/26 02:51:43;;;;;;;33.60;11.60;;;;;;;7.60;95.73;100414.19;5143409;27;20102;-57
2023/03/26 02:54:08;;;;;;;35.03;10.48;;;;;;;7.58;95.61;100400.19;5153603;27;20019;-56
2023/03/26 02:56:34;;;;;;;29.95;10.90;;;;;;;7.54;96.92;100395.16;5134836;27;20019;-56
2023/03/26 02:59:00;;;;;;;32.72;10.85;;;;;;;7.65;96.23;100393.59;5153390;27;20105;-56
2023/03/26 03:01:29;;;;;;;31.90;10.88;;;;;;;7.62;95.82;100385.00;5128857;28;20101;-56
2023/03/26 03:04:00;;;;;;;36.00;13.05;;;;;;;7.61;95.79;100385.91;5115122;28;20029;-57
2023/03/26 03:06:29;;;;;;;32.85;12.18;;;;;;;7.58;95.71;100388.75;5150721;27;20039;-56
2023/03/26 03:08:58;;;;;;;32.55;11.73;;;;;;;7.59;95.63;100369.25;5153275;27;20393;-56
2023/03/26 03:11:23;;;;;;;33.47;11.57;;;;;;;7.51;96.09;100364.44;5124826;28;20039;-57
2023/03/26 03:13:49;;;;;;;37.50;11.82;;;;;;;7.55;95.77;100365.94;5132691;28;20019;-56
2023/03/26 03:16:15;;;;;;;40.03;12.13;;;;;;;7.56;95.74;100364.16;5117865;27;20023;-57
2023/03/26 03:18:41;;;;;;;40.30;12.25;;;;;;;7.57;96.17;100358.78;5132754;28;20106;-56
2023/03/26 03:21:06;;;;;;;30.42;11.43;;;;;;;7.63;96.41;100360.22;5113833;28;20106;-57
2023/03/26 03:23:34;;;;;;;36.40;11.07;;;;;;;7.63;96.09;100354.94;5132329;28;20031;-57
2023/03/26 03:26:01;;;;;;;34.35;10.75;;;;;;;7.64;95.50;100357.47;5133997;27;20030;-57
2023/03/26 03:28:29;;;;;;;32.78;10.95;;;;;;;7.59;96.14;100348.97;5134691;27;20472;-56
2023/03/26 03:30:56;;;;;;;33.67;11.07;;;;;;;7.63;96.21;100339.91;5133524;27;20544;-57
2023/03/26 03:33:22;;;;;;;27.15;10.18;;;;;;;7.70;97.41;100341.22;5156048;27;20023;-56
2023/03/26 03:35:48;;;;;;;30.65;10.65;;;;;;;7.64;96.78;100346.88;5157180;27;20385;-56
2023/03/26 03:38:15;;;;;;;29.05;9.48;;;;;;;7.66;97.19;100352.94;5119671;27;20026;-56
2023/03/26 03:40:42;;;;;;;36.65;10.27;;;;;;;7.66;96.87;100341.50;5157143;27;20010;-56
2023/03/26 03:43:10;;;;;;;31.73;10.93;;;;;;;7.65;97.64;100334.53;5140605;27;20023;-56
2023/03/26 03:45:36;;;;;;;30.38;9.90;;;;;;;7.69;98.30;100336.03;5135388;27;20497;-56
2023/03/26 03:48:02;;;;;;;27.48;9.38;;;;;;;7.66;99.24;100336.22;5136260;27;20023;-57
2023/03/26 03:50:27;;;;;;;26.35;9.68;;;;;;;7.59;99.30;100318.97;5136052;27;20031;-57
2023/03/26 03:52:55;;;;;;;33.25;8.90;;;;;;;7.55;99.64;100320.13;5127884;27;20037;-57
2023/03/26 03:55:22;;;;;;;25.58;9.32;;;;;;;7.64;100.00;100333.66;5156736;27;20030;-57
2023/03/26 03:57:48;;;;;;;29.85;10.02;;;;;;;7.63;100.00;100328.47;5138290;27;20038;-56
2023/03/26 04:00:14;;;;;;;28.92;9.82;;;;;;;7.70;100.00;100317.41;5137245;27;20046;-57
2023/03/26 04:02:41;;;;;;;24.05;10.15;;;;;;;7.71;100.00;100310.34;5142249;27;20401;-56
2023/03/26 04:05:07;;;;;;;24.60;9.10;;;;;;;7.79;100.00;100309.84;5151804;27;20025;-56
2023/03/26 04:07:33;;;;;;;22.02;9.50;;;;;;;7.80;100.00;100308.94;5156611;27;20029;-57
2023/03/26 04:10:00;;;;;;;23.30;10.10;;;;;;;7.90;100.00;100297.69;5156033;27;20388;-57
2023/03/26 04:12:27;;;;;;;22.27;10.35;;;;;;;7.89;100.00;100288.03;5156291;27;20422;-57
2023/03/26 04:14:53;;;;;;;24.02;9.70;;;;;;;7.82;100.00;100286.69;5154098;27;20100;-57
2023/03/26 04:17:20;;;;;;;20.17;8.73;;;;;;;7.89;100.00;100280.09;5127995;27;20019;-57
2023/03/26 04:19:46;;;;;;;26.88;9.77;;;;;;;7.89;100.00;100268.66;5135364;27;20023;-57
2023/03/26 04:22:12;;;;;;;26.95;9.18;;;;;;;7.87;100.00;100266.09;5117290;27;20023;-56
2023/03/26 04:24:41;;;;;;;25.42;9.52;;;;;;;7.89;100.00;100266.88;5135451;27;20071;-57
2023/03/26 04:27:11;;;;;;;19.35;9.90;;;;;;;7.80;100.00;100259.47;5136105;27;20059;-57
2023/03/26 04:29:43;;;;;;;25.10;8.95;;;;;;;7.88;100.00;100262.53;5134837;27;20019;-56
2023/03/26 04:32:18;;;;;;;17.73;9.25;;;;;;;7.87;100.00;100249.38;5116720;27;20098;-57
2023/03/26 04:34:44;;;;;;;23.08;9.15;;;;;;;7.93;100.00;100241.88;5117594;27;20050;-56
2023/03/26 04:37:19;;;;;;;23.33;8.45;;;;;;;7.90;100.00;100241.22;5136570;27;20495;-57
2023/03/26 04:39:45;;;;;;;24.45;8.80;;;;;;;7.80;100.00;100234.81;5135148;27;20489;-57
2023/03/26 04:42:13;;;;;;;23.73;8.48;;;;;;;7.96;100.00;100231.09;5116703;27;20023;-57
2023/03/26 04:44:41;;;;;;;23.52;9.70;;;;;;;7.90;100.00;100225.34;5133552;27;20019;-56
2023/03/26 04:47:06;;;;;;;27.70;9.20;;;;;;;7.79;100.00;100214.56;5138889;27;20059;-57
2023/03/26 04:49:32;;;;;;;22.40;8.65;;;;;;;7.92;100.00;100216.38;5155791;27;20486;-56
2023/03/26 04:51:59;;;;;;;26.35;9.57;;;;;;;7.85;100.00;100211.53;5137216;27;20014;-56
2023/03/26 04:54:25;;;;;;;23.08;8.75;;;;;;;7.83;100.00;100208.16;5155626;27;20098;-56
2023/03/26 04:57:03;;;;;;;25.52;9.15;;;;;;;7.84;100.00;100205.41;5145024;27;20470;-57
2023/03/26 04:59:34;;;;;;;25.15;9.70;;;;;;;7.84;100.00;100202.75;5134372;27;20023;-56
2023/03/26 05:02:01;;;;;;;21.80;8.48;;;;;;;7.77;100.00;100203.25;5116254;27;20018;-56
2023/03/26 05:04:30;;;;;;;20.30;9.48;;;;;;;7.85;100.00;100198.28;5116368;27;20035;-56
2023/03/26 05:06:59;;;;;;;21.42;8.48;;;;;;;7.80;100.00;100192.47;5135866;27;20060;-56
2023/03/26 05:09:26;;;;;;;21.30;9.27;;;;;;;7.84;100.00;100181.56;5134635;27;20103;-56
2023/03/26 05:11:51;;;;;;;21.70;9.43;;;;;;;7.79;100.00;100181.00;5134240;27;20103;-56
2023/03/26 05:14:17;;;;;;;21.92;9.25;;;;;;;7.85;100.00;100182.41;5116207;27;20056;-56
2023/03/26 05:16:45;;;;;;;22.73;9.05;;;;;;;7.81;100.00;100186.22;5117066;27;20080;-56
2023/03/26 05:19:11;;;;;;;20.20;9.05;;;;;;;7.77;100.00;100180.25;5154976;27;20113;-56
2023/03/26 05:21:36;;;;;;;21.75;8.85;;;;;;;7.77;100.00;100177.63;5155105;27;20075;-57
2023/03/26 05:24:02;;;;;;;26.02;8.90;;;;;;;7.81;100.00;100181.75;5134592;27;20253;-56
2023/03/26 05:26:28;;;;;;;22.05;8.80;;;;;;;7.77;100.00;100168.81;5133809;27;20027;-56
2023/03/26 05:28:54;;;;;;;20.90;9.15;;;;;;;7.75;100.00;100166.25;5117163;27;20030;-56
2023/03/26 05:31:20;;;;;;;24.15;9.50;;;;;;;7.79;100.00;100161.63;5097944;27;20075;-56
2023/03/26 05:33:47;;;;;;;22.50;9.27;;;;;;;7.79;100.00;100161.63;5134275;27;20080;-56
2023/03/26 05:36:14;;;;;;;20.88;9.82;;;;;;;7.82;100.00;100156.13;5115795;27;20062;-58
2023/03/26 05:38:41;;;;;;;29.35;10.60;;;;;;;7.80;100.00;100150.09;5134292;27;20024;-57
2023/03/26 05:41:08;;;;;;;22.30;9.90;;;;;;;7.80;100.00;100148.31;5133308;27;20105;-56
2023/03/26 05:43:34;;;;;;;22.15;9.82;;;;;;;7.71;100.00;100147.09;5138322;27;20062;-56
2023/03/26 05:46:00;;;;;;;26.15;10.95;;;;;;;7.62;100.00;100129.13;5154036;27;20031;-56
2023/03/26 05:48:26;;;;;;;22.95;8.93;;;;;;;7.63;100.00;100149.34;5140337;27;20079;-56
2023/03/26 05:50:54;;;;;;;23.88;10.27;;;;;;;7.73;100.00;100131.09;5133728;27;20427;-56
2023/03/26 05:53:21;;;;;;;25.17;10.00;;;;;;;7.72;100.00;100127.59;5133880;27;20027;-57
2023/03/26 05:55:57;;;;;;;20.25;9.90;;;;;;;7.71;100.00;100125.06;5115476;27;20031;-57
2023/03/26 05:58:24;;;;;;;29.65;10.48;;;;;;;7.69;100.00;100116.38;5115287;27;20114;-57
2023/03/26 06:01:01;;;;;;;22.75;9.65;;;;;;;7.74;100.00;100116.94;5133031;27;20022;-57
2023/03/26 06:03:29;;;;;;;23.75;9.77;;;;;;;7.72;100.00;100114.38;5133575;27;20019;-57
2023/03/26 06:05:55;;;;;;;24.23;9.70;;;;;;;7.68;100.00;100104.94;5125346;27;20062;-56
2023/03/26 06:08:21;;;;;;;22.17;9.90;;;;;;;7.71;100.00;100109.19;5133462;27;20080;-56
2023/03/26 06:10:46;;;;;;;25.55;9.00;;;;;;;7.70;100.00;100107.47;5115166;27;20477;-56
2023/03/26 06:13:12;;;;;;;23.58;9.82;;;;;;;7.85;100.00;100103.00;5133378;27;20099;-57
2023/03/26 06:15:37;;;;;;;20.83;9.82;;;;;;;7.86;100.00;100100.25;5133007;27;20019;-57
2023/03/26 06:18:03;;;;;;;25.83;9.15;;;;;;;7.89;100.00;100097.41;5095591;28;20042;-56
2023/03/26 06:20:28;;;;;;;22.73;9.15;;;;;;;7.85;100.00;100098.56;5112549;28;20034;-56
2023/03/26 06:22:54;;;;;;;24.98;9.60;;;;;;;7.87;100.00;100095.81;5111044;28;20028;-56
2023/03/26 06:25:19;;;;;;;19.10;9.35;;;;;;;7.80;100.00;100091.88;5124912;27;20026;-56
2023/03/26 06:27:45;;;;;;;18.98;9.15;;;;;;;7.89;100.00;100101.88;5134098;27;20534;-57
2023/03/26 06:30:11;;;;;;;23.80;10.10;;;;;;;7.84;100.00;100093.38;5113913;27;20054;-56
2023/03/26 06:32:38;;;;;;;25.90;9.73;;;;;;;7.80;100.00;100086.56;5144257;27;20470;-56
2023/03/26 06:35:05;;;;;;;21.67;9.77;;;;;;;7.79;100.00;100095.44;5119928;27;20034;-56
2023/03/26 06:37:30;;;;;;;23.70;9.10;;;;;;;7.72;100.00;100077.31;5122551;27;20422;-57
2023/03/26 06:39:55;;;;;;;24.10;10.63;;;;;;;7.74;100.00;100093.94;5132851;27;20457;-56
2023/03/26 06:42:21;;;;;;;23.55;10.35;;;;;;;7.74;100.00;100093.94;5132796;27;20083;-56
2023/03/26 06:44:46;;;;;;;21.27;8.93;;;;;;;7.69;100.00;100101.31;5132385;27;20142;-57
2023/03/26 06:47:12;;;;;;;19.92;9.10;;;;;;;7.64;100.00;100092.81;5139581;27;20091;-57
2023/03/26 06:49:38;;;;;;;24.83;9.15;;;;;;;7.64;100.00;100102.56;5117896;27;20033;-57
2023/03/26 06:52:03;;;;;;;21.38;9.63;;;;;;;7.57;100.00;100094.16;5153111;27;20095;-57
2023/03/26 06:54:29;;;;;;;20.67;9.38;;;;;;;7.64;100.00;100099.91;5135087;27;20026;-57
2023/03/26 06:56:55;;;;;;;25.00;11.35;;;;;;;7.62;100.00;100093.88;5152479;27;20029;-56
2023/03/26 06:59:21;;;;;;;21.65;9.27;;;;;;;7.55;100.00;100088.09;5141901;27;20496;-57
2023/03/26 07:01:49;;;;;;;19.73;9.20;;;;;;;7.59;100.00;100100.22;5134310;27;20022;-56
2023/03/26 07:04:14;;;;;;;23.85;11.38;;;;;;;7.49;100.00;100076.09;5144367;27;20050;-56
2023/03/26 07:06:39;;;;;;;25.35;10.40;;;;;;;7.57;100.00;100088.88;5132438;27;20469;-56
2023/03/26 07:09:05;;;;;;;22.58;10.50;;;;;;;7.60;100.00;100087.84;5137117;27;20050;-56
2023/03/26 07:11:33;;;;;;;25.92;10.80;;;;;;;7.58;100.00;100087.06;5118461;27;20435;-57
2023/03/26 07:13:58;;;;;;;21.50;9.82;;;;;;;7.57;100.00;100085.38;5138008;27;20031;-57
2023/03/26 07:16:24;;;;;;;26.17;10.07;;;;;;;7.60;100.00;100085.19;5152375;27;20482;-57
2023/03/26 07:18:50;;;;;;;21.45;9.13;;;;;;;7.61;100.00;100084.22;5136845;27;20024;-56
2023/03/26 07:21:16;;;;;;;21.85;9.55;;;;;;;7.59;100.00;100084.34;5117971;27;20030;-56
2023/03/26 07:23:42;;;;;;;22.83;10.27;;;;;;;7.58;100.00;100079.97;5118420;27;20027;-57
2023/03/26 07:26:24;;;;;;;21.85;10.77;;;;;;;7.58;100.00;100082.63;5117064;27;20069;-56
2023/03/26 07:28:58;;;;;;;19.77;10.68;;;;;;;7.51;100.00;100068.09;5149059;27;20018;-56
2023/03/26 07:31:48;;;;;;;21.27;10.45;;;;;;;7.55;100.00;100077.53;5147326;27;20506;-56
2023/03/26 07:35:01;;;;;;;19.02;10.38;;;;;;;7.61;100.00;100071.84;5136537;27;20015;-57
2023/03/26 07:37:47;;;;;;;20.58;10.43;;;;;;;7.58;100.00;100066.75;5117887;27;20039;-56
2023/03/26 07:40:30;;;;;;;20.38;9.60;;;;;;;7.64;100.00;100052.28;5136116;27;20023;-56
2023/03/26 07:43:08;;;;;;;22.27;11.02;;;;;;;7.68;100.00;100056.44;5121955;27;20110;-57
2023/03/26 07:45:42;;;;;;;19.35;10.95;;;;;;;7.72;100.00;100063.22;5117069;27;20119;-56
2023/03/26 07:48:16;;;;;;;21.70;10.40;;;;;;;7.77;100.00;100062.94;5136003;27;20032;-56
2023/03/26 07:50:44;;;;;;;18.08;9.75;;;;;;;7.73;100.00;100060.50;5135920;27;20023;-57
2023/03/26 07:53:10;;;;;;;18.92;10.07;;;;;;;7.70;100.00;100055.38;5128856;27;20042;-56
2023/03/26 07:55:46;;;;;;;21.67;10.15;;;;;;;7.76;100.00;100058.59;5138135;27;20022;-57
2023/03/26 07:58:33;;;;;;;19.00;10.57;;;;;;;7.72;100.00;100053.50;5156875;27;20030;-56
2023/03/26 08:01:18;;;;;;;16.08;9.68;;;;;;;7.79;100.00;100058.38;5152431;27;20027;-56
2023/03/26 08:04:22;;;;;;;18.13;8.68;;;;;;;7.83;100.00;100047.50;5136003;27;20045;-57
2023/03/26 08:07:03;;;;;;;17.13;9.70;;;;;;;7.84;100.00;100051.00;5103896;27;20046;-57
2023/03/26 08:09:37;;;;;;;19.60;10.60;;;;;;;7.87;100.00;100053.44;5135601;27;20371;-57
2023/03/26 08:12:15;;;;;;;18.50;9.82;;;;;;;7.93;100.00;100056.53;5136620;27;20509;-57
2023/03/26 08:14:57;;;;;;;19.98;9.90;;;;;;;7.90;100.00;100042.66;5150404;27;20026;-57
2023/03/26 08:17:34;;;;;;;15.50;9.40;;;;;;;7.93;100.00;100040.66;5156377;27;20031;-57
2023/03/26 08:20:06;;;;;;;18.38;9.13;;;;;;;7.95;100.00;100049.38;5155727;27;20030;-57
2023/03/26 08:22:39;;;;;;;17.25;9.52;;;;;;;7.99;100.00;100043.88;5147233;27;20163;-56
2023/03/26 08:25:08;;;;;;;23.60;11.38;;;;;;;8.05;100.00;100040.81;5126632;27;20038;-57
2023/03/26 08:27:46;;;;;;;19.70;9.88;;;;;;;8.05;100.00;100040.81;5116845;27;20031;-57
2023/03/26 08:30:23;;;;;;;20.85;9.98;;;;;;;8.10;100.00;100039.56;5116294;27;20030;-57
2023/03/26 08:32:57;;;;;;;21.63;10.23;;;;;;;8.11;100.00;100035.09;5094383;28;20130;-57
2023/03/26 08:35:24;;;;;;;18.40;9.88;;;;;;;8.11;100.00;100035.94;5092708;28;20067;-57
2023/03/26 08:37:50;;;;;;;33.30;19.23;;;;;;;8.22;100.00;100034.41;5093041;28;20020;-57
2023/03/26 08:40:30;;;;;;;23.80;13.55;;;;;;;8.29;100.00;100038.34;5095385;28;20031;-56
2023/03/26 08:43:30;;;;;;;20.35;11.23;;;;;;;8.24;100.00;100032.53;5101572;28;20027;-56
2023/03/26 08:46:01;;;;;;;24.77;10.50;;;;;;;8.23;100.00;100034.28;5093532;28;20028;-57
2023/03/26 08:48:57;;;;;;;19.30;9.55;;;;;;;8.27;100.00;100035.81;5092377;28;20097;-58
2023/03/26 08:51:47;;;;;;;17.45;9.50;;;;;;;8.34;100.00;100036.25;5093800;28;20451;-57
2023/03/26 08:55:06;;;;;;;25.50;12.65;;;;;;;8.38;100.00;100032.41;5094936;28;20028;-57
2023/03/26 08:57:56;;;;;;;18.85;10.18;;;;;;;8.31;100.00;100037.28;5031533;28;20531;-57
2023/03/26 09:00:25;;;;;;;;;;;;;;;8.48;100.00;100036.19;5035362;28;20029;-57
2023/03/26 09:03:15;;;;;;;36.50;22.15;;;;;;;8.33;100.00;100030.09;5084390;28;19912;-57
2023/03/26 09:06:00;;;;;;;20.05;13.50;;;;;;;8.35;100.00;100025.56;5114272;28;20027;-57
2023/03/26 09:08:42;;;;;;;21.55;9.85;;;;;;;8.37;100.00;100028.09;5114279;28;20081;-57
2023/03/26 09:11:26;;;;;;;16.80;8.90;;;;;;;8.41;100.00;100032.25;5111160;28;20027;-57
2023/03/26 09:14:17;;;;;;;19.73;10.30;;;;;;;8.35;100.00;100033.50;5099179;27;20474;-57
2023/03/26 09:17:20;;;;;;;23.02;13.40;;;;;;;8.41;100.00;100029.59;5093204;28;20467;-57
2023/03/26 09:20:25;;;;;;;19.67;10.13;;;;;;;8.44;100.00;100032.03;5094463;28;20547;-57
2023/03/26 09:23:09;;;;;;;14.23;9.63;;;;;;;8.52;100.00;100031.53;5113926;28;20027;-57
2023/03/26 09:25:52;;;;;;;15.90;9.10;;;;;;;8.49;100.00;100029.94;5112329;28;20062;-57
2023/03/26 09:28:44;;;;;;;16.42;9.60;;;;;;;8.52;100.00;100029.72;5113683;28;20489;-57
2023/03/26 09:31:40;;;;;;;14.98;9.38;;;;;;;8.56;100.00;100027.72;5127151;27;20046;-57
2023/03/26 09:34:44;;;;;;;16.33;9.10;;;;;;;8.52;100.00;100024.44;5154906;27;20420;-57
2023/03/26 09:37:35;;;;;;;12.75;9.48;;;;;;;8.45;100.00;100028.44;5139161;27;20405;-57
2023/03/26 09:40:13;;;;;;;13.60;8.23;;;;;;;8.39;100.00;100027.06;5139793;27;20031;-57
2023/03/26 09:43:00;;;;;;;20.35;12.35;;;;;;;8.44;100.00;100034.69;5134158;27;20033;-57
2023/03/26 09:45:43;;;;;;;19.45;13.25;;;;;;;8.34;100.00;100018.53;5133042;27;20500;-57
2023/03/26 09:48:48;;;;;;;16.10;13.00;;;;;;;8.41;100.00;100030.47;5115347;27;20032;-57
2023/03/26 09:51:17;;;;;;;46.33;31.88;;;;;;;8.34;100.00;100023.84;5136772;27;20024;-57
2023/03/26 09:54:13;;;;;;;85.88;51.00;;;;;;;8.41;100.00;100024.28;5094838;28;20070;-57
2023/03/26 09:56:48;;;;;;;14.10;10.32;;;;;;;8.28;100.00;100012.81;5113208;28;20031;-57
2023/03/26 09:59:22;;;;;;;9.85;8.80;;;;;;;8.46;100.00;100032.78;5129861;27;20505;-57
2023/03/26 10:01:56;;;;;;;11.68;8.25;;;;;;;8.48;100.00;100028.25;5112493;28;20118;-57
2023/03/26 10:04:26;;;;;;;12.25;7.65;;;;;;;8.46;100.00;100030.16;5131245;27;20031;-57
2023/03/26 10:07:03;;;;;;;12.38;7.63;;;;;;;8.48;100.00;100036.19;5154262;27;20079;-57
2023/03/26 10:09:59;;;;;;;9.20;7.03;;;;;;;8.58;100.00;100036.41;5135370;27;20118;-57
2023/03/26 10:12:38;;;;;;;12.95;9.80;;;;;;;8.59;100.00;100035.47;5135498;27;20031;-57
2023/03/26 10:15:32;;;;;;;8.98;5.43;;;;;;;8.58;98.71;100037.25;5132937;27;20485;-57
2023/03/26 10:18:13;;;;;;;8.63;7.30;;;;;;;8.52;97.46;100047.44;5145524;27;20109;-57
2023/03/26 10:21:12;;;;;;;11.05;7.63;;;;;;;8.53;98.71;100033.22;5133523;27;20031;-57
2023/03/26 10:23:45;;;;;;;9.13;7.22;;;;;;;8.42;97.54;100036.63;5115104;27;20019;-57
2023/03/26 10:26:11;;;;;;;11.73;6.50;;;;;;;8.33;98.79;100038.03;5149139;27;20059;-57
2023/03/26 10:28:58;;;;;;;10.55;8.07;;;;;;;8.44;98.58;100044.44;5153741;27;20019;-57
2023/03/26 10:31:26;;;;;;;8.75;6.70;;;;;;;8.44;98.05;100041.78;5152912;27;20045;-57
2023/03/26 10:34:22;;;;;;;10.25;6.75;;;;;;;8.51;97.35;100049.25;5131580;27;20087;-57
2023/03/26 10:37:15;;;;;;;7.55;6.63;;;;;;;8.54;97.33;100041.09;5114571;27;20027;-57
2023/03/26 10:39:55;;;;;;;9.40;7.00;;;;;;;8.60;97.61;100053.91;5133289;27;20097;-57
2023/03/26 10:42:40;;;;;;;7.38;6.13;;;;;;;8.63;98.30;100048.41;5114563;27;20489;-57
2023/03/26 10:45:24;;;;;;;7.70;6.97;;;;;;;8.71;98.99;100047.91;5133002;27;20050;-57
2023/03/26 10:48:17;;;;;;;9.32;6.60;;;;;;;8.70;99.56;100051.47;5133130;27;20035;-57
2023/03/26 10:50:49;;;;;;;7.35;6.35;;;;;;;8.72;98.55;100056.69;5132938;27;20023;-57
2023/03/26 10:53:32;;;;;;;7.13;6.45;;;;;;;8.65;96.47;100050.97;5132738;27;20504;-57
2023/03/26 10:56:06;;;;;;;7.70;7.00;;;;;;;8.62;96.85;100062.63;5153368;27;20109;-57
2023/03/26 10:58:34;;;;;;;6.78;6.07;;;;;;;8.54;93.93;100061.44;5153187;27;20385;-57
2023/03/26 11:01:10;;;;;;;7.25;6.53;;;;;;;8.64;95.90;100055.41;5152752;27;20376;-57
2023/03/26 11:03:45;;;;;;;6.78;6.13;;;;;;;8.57;95.31;100062.06;5152330;27;20079;-57
2023/03/26 11:06:19;;;;;;;6.82;6.22;;;;;;;8.58;93.97;100062.91;5111786;28;20040;-57
2023/03/26 11:08:47;;;;;;;5.97;5.47;;;;;;;8.48;92.08;100067.16;5137532;27;20038;-57
2023/03/26 11:11:20;;;;;;;5.97;5.57;;;;;;;8.36;91.10;100063.50;5153164;27;20099;-57
2023/03/26 11:13:55;;;;;;;6.25;5.75;;;;;;;8.41;92.51;100066.69;5146070;27;20381;-57
2023/03/26 11:16:46;;;;;;;6.20;5.80;;;;;;;8.48;92.58;100070.66;5113431;28;20027;-58
2023/03/26 11:19:27;;;;;;;8.27;7.57;;;;;;;8.37;94.29;100055.41;5133848;27;20035;-57
2023/03/26 11:22:16;;;;;;;6.15;5.75;;;;;;;8.59;93.89;100070.78;5114288;28;20027;-57
2023/03/26 11:25:00;;;;;;;6.57;6.07;;;;;;;8.67;93.58;100078.19;5132399;27;20023;-57
2023/03/26 11:27:44;;;;;;;5.82;5.32;;;;;;;8.57;90.77;100074.47;5132185;28;20355;-57
2023/03/26 11:30:44;;;;;;;5.63;5.13;;;;;;;8.77;90.58;100081.94;5148490;27;20030;-57
2023/03/26 11:33:16;;;;;;;6.47;5.97;;;;;;;8.65;90.33;100080.13;5137321;27;20065;-57
2023/03/26 11:35:47;;;;;;;5.93;5.43;;;;;;;8.71;90.92;100076.22;5094317;28;20077;-57
2023/03/26 11:38:38;;;;;;;6.28;5.78;;;;;;;8.74;91.74;100081.31;5112052;28;20028;-57
2023/03/26 11:41:20;;;;;;;5.70;5.28;;;;;;;8.77;91.25;100081.94;5111792;28;20026;-57
2023/03/26 11:43:51;;;;;;;6.70;6.03;;;;;;;8.80;90.53;100087.03;5129822;27;20031;-57
2023/03/26 11:46:19;;;;;;;6.53;5.50;;;;;;;8.96;93.30;100078.88;5131566;28;20021;-58